createdAt,value
2023-03-18T00:00:19.136Z,4.95
2023-03-18T00:02:46.616Z,4.90
2023-03-18T00:05:14.461Z,4.57
2023-03-18T00:07:41.898Z,5.22
2023-03-18T00:10:10.630Z,4.65
2023-03-18T00:12:41.666Z,4.82
2023-03-18T00:15:11.014Z,4.65
2023-03-18T00:17:37.961Z,4.78
2023-03-18T00:20:06.942Z,4.65
2023-03-18T00:22:38.156Z,4.68
2023-03-18T00:25:07.097Z,4.70
2023-03-18T00:27:35.962Z,5.13
2023-03-18T00:30:05.077Z,5.03
2023-03-18T00:32:32.763Z,5.10
2023-03-18T00:34:59.515Z,4.50
2023-03-18T00:37:33.480Z,4.50
2023-03-18T00:40:17.288Z,4.22
2023-03-18T00:42:47.713Z,4.60
2023-03-18T00:45:17.115Z,4.88
2023-03-18T00:47:44.383Z,4.93
2023-03-18T00:50:11.743Z,5.35
2023-03-18T00:52:39.695Z,5.10
2023-03-18T00:55:07.383Z,4.80
2023-03-18T00:57:34.686Z,5.03
2023-03-18T01:00:01.602Z,4.85
2023-03-18T01:02:29.547Z,5.15
2023-03-18T01:04:57.177Z,4.63
2023-03-18T01:07:24.313Z,3.95
2023-03-18T01:09:51.025Z,4.50
2023-03-18T01:12:17.822Z,4.55
2023-03-18T01:14:44.538Z,4.90
2023-03-18T01:17:11.528Z,4.35
2023-03-18T01:19:38.741Z,3.95
2023-03-18T01:22:06.493Z,4.68
2023-03-18T01:24:33.797Z,4.78
2023-03-18T01:27:00.725Z,4.20
2023-03-18T01:29:27.496Z,5.32
2023-03-18T01:31:55.044Z,4.43
2023-03-18T01:34:21.897Z,4.90
2023-03-18T01:36:48.574Z,5.57
2023-03-18T01:39:15.613Z,4.63
2023-03-18T01:41:42.438Z,4.70
2023-03-18T01:44:14.758Z,4.68
2023-03-18T01:46:44.938Z,4.90
2023-03-18T01:51:46.295Z,4.60
2023-03-18T01:54:14.192Z,4.40
2023-03-18T01:56:43.069Z,4.45
2023-03-18T01:59:11.261Z,4.90
2023-03-18T02:01:48.785Z,4.68
2023-03-18T02:04:16.604Z,4.88
2023-03-18T02:06:44.285Z,4.80
2023-03-18T02:09:11.744Z,3.88
2023-03-18T02:11:41.558Z,4.45
2023-03-18T02:14:11.689Z,4.65
2023-03-18T02:16:47.548Z,4.68
2023-03-18T02:19:37.195Z,4.22
2023-03-18T02:22:15.354Z,4.30
2023-03-18T02:25:03.438Z,4.78
2023-03-18T02:27:35.356Z,4.38
2023-03-18T02:30:18.916Z,4.53
2023-03-18T02:32:48.388Z,4.60
2023-03-18T02:35:15.509Z,3.78
2023-03-18T02:37:42.173Z,3.95
2023-03-18T02:40:22.179Z,4.60
2023-03-18T02:42:49.425Z,4.53
2023-03-18T02:45:40.839Z,5.13
2023-03-18T02:48:10.548Z,4.25
2023-03-18T02:50:37.163Z,4.30
2023-03-18T02:53:05.453Z,4.30
2023-03-18T02:55:32.298Z,3.78
2023-03-18T02:57:58.909Z,4.15
2023-03-18T03:00:25.727Z,4.60
2023-03-18T03:02:52.562Z,4.55
2023-03-18T03:05:19.376Z,4.10
2023-03-18T03:07:46.682Z,4.68
2023-03-18T03:10:13.909Z,4.22
2023-03-18T03:12:41.253Z,4.38
2023-03-18T03:15:08.745Z,4.60
2023-03-18T03:17:35.837Z,4.60
2023-03-18T03:20:06.191Z,4.20
2023-03-18T03:22:34.271Z,4.82
2023-03-18T03:25:01.273Z,4.50
2023-03-18T03:27:28.546Z,4.43
2023-03-18T03:29:55.839Z,4.70
2023-03-18T03:32:22.886Z,4.20
2023-03-18T03:34:50.319Z,4.70
2023-03-18T03:37:17.294Z,5.07
2023-03-18T03:39:44.780Z,4.50
2023-03-18T03:42:11.566Z,4.72
2023-03-18T03:44:38.214Z,4.85
2023-03-18T03:47:05.165Z,4.00
2023-03-18T03:49:32.225Z,4.47
2023-03-18T03:51:59.058Z,4.40
2023-03-18T03:54:25.784Z,4.55
2023-03-18T03:56:53.149Z,4.10
2023-03-18T03:59:20.165Z,3.97
2023-03-18T04:01:47.200Z,4.90
2023-03-18T04:04:13.850Z,4.63
2023-03-18T04:06:40.709Z,4.57
2023-03-18T04:09:07.385Z,4.28
2023-03-18T04:11:34.121Z,4.57
2023-03-18T04:14:01.159Z,3.70
2023-03-18T04:16:28.554Z,4.18
2023-03-18T04:18:55.297Z,3.78
2023-03-18T04:21:22.338Z,4.25
2023-03-18T04:23:48.974Z,4.72
2023-03-18T04:26:15.988Z,4.10
2023-03-18T04:28:42.750Z,5.40
2023-03-18T04:31:09.532Z,5.00
2023-03-18T04:33:36.301Z,4.53
2023-03-18T04:36:03.106Z,4.50
2023-03-18T04:38:29.737Z,4.63
2023-03-18T04:40:56.400Z,4.30
2023-03-18T04:43:23.216Z,4.32
2023-03-18T04:45:50.171Z,4.65
2023-03-18T04:48:16.793Z,5.15
2023-03-18T04:50:43.740Z,4.75
2023-03-18T04:53:10.390Z,4.70
2023-03-18T04:55:37.133Z,4.80
2023-03-18T04:58:04.727Z,4.50
2023-03-18T05:00:31.916Z,4.75
2023-03-18T05:02:58.551Z,4.75
2023-03-18T05:05:25.622Z,4.43
2023-03-18T05:07:52.371Z,4.45
2023-03-18T05:10:19.522Z,4.40
2023-03-18T05:12:46.310Z,4.60
2023-03-18T05:15:14.281Z,4.43
2023-03-18T05:17:41.284Z,4.68
2023-03-18T05:20:10.226Z,4.80
2023-03-18T05:22:37.239Z,4.20
2023-03-18T05:25:04.276Z,4.35
2023-03-18T05:27:31.256Z,4.15
2023-03-18T05:29:58.142Z,4.63
2023-03-18T05:32:24.758Z,5.03
2023-03-18T05:34:51.510Z,4.40
2023-03-18T05:37:18.170Z,4.78
2023-03-18T05:39:45.483Z,4.50
2023-03-18T05:42:12.616Z,4.90
2023-03-18T05:44:40.372Z,4.97
2023-03-18T05:47:07.450Z,4.28
2023-03-18T05:49:34.120Z,4.63
2023-03-18T05:52:01.315Z,4.53
2023-03-18T05:54:28.865Z,4.47
2023-03-18T05:56:55.636Z,4.80
2023-03-18T05:59:24.070Z,4.65
2023-03-18T06:01:51.745Z,4.72
2023-03-18T06:04:19.362Z,5.45
2023-03-18T06:06:46.745Z,4.70
2023-03-18T06:09:14.278Z,4.60
2023-03-18T06:11:41.178Z,4.50
2023-03-18T06:14:08.865Z,5.07
2023-03-18T06:16:36.118Z,3.90
2023-03-18T06:19:04.040Z,4.95
2023-03-18T06:21:33.235Z,5.22
2023-03-18T06:24:01.497Z,4.90
2023-03-18T06:26:28.455Z,4.80
2023-03-18T06:28:55.100Z,4.82
2023-03-18T06:31:22.396Z,4.95
2023-03-18T06:33:49.156Z,4.75
2023-03-18T06:36:16.896Z,5.22
2023-03-18T06:38:44.900Z,4.78
2023-03-18T06:41:12.129Z,4.88
2023-03-18T06:43:39.139Z,4.65
2023-03-18T06:46:05.942Z,5.10
2023-03-18T06:48:32.979Z,4.82
2023-03-18T06:50:59.792Z,4.35
2023-03-18T06:53:27.515Z,4.97
2023-03-18T06:55:54.366Z,4.80
2023-03-18T06:58:21.008Z,4.60
2023-03-18T07:00:47.706Z,4.53
2023-03-18T07:03:15.877Z,5.32
2023-03-18T07:05:42.919Z,5.18
2023-03-18T07:08:10.319Z,5.10
2023-03-18T07:10:36.975Z,4.75
2023-03-18T07:13:04.749Z,5.43
2023-03-18T07:15:33.079Z,4.78
2023-03-18T07:18:00.640Z,4.95
2023-03-18T07:20:28.713Z,4.70
2023-03-18T07:22:55.486Z,4.82
2023-03-18T07:25:23.086Z,5.88
2023-03-18T07:27:49.975Z,5.90
2023-03-18T07:30:17.971Z,5.15
2023-03-18T07:32:46.057Z,5.20
2023-03-18T07:35:14.289Z,4.95
2023-03-18T07:37:41.646Z,5.13
2023-03-18T07:40:10.093Z,5.15
2023-03-18T07:42:36.812Z,5.07
2023-03-18T07:45:04.523Z,4.93
2023-03-18T07:47:31.192Z,4.88
2023-03-18T07:49:57.824Z,4.72
2023-03-18T07:52:24.675Z,5.30
2023-03-18T07:54:51.428Z,4.63
2023-03-18T07:57:18.981Z,4.47
2023-03-18T07:59:45.851Z,4.88
2023-03-18T08:02:14.429Z,5.15
2023-03-18T08:04:42.890Z,5.63
2023-03-18T08:07:10.171Z,4.65
2023-03-18T08:09:36.827Z,5.30
2023-03-18T08:12:03.674Z,5.15
2023-03-18T08:14:30.479Z,5.10
2023-03-18T08:16:57.294Z,4.05
2023-03-18T08:19:24.104Z,5.72
2023-03-18T08:21:50.864Z,5.40
2023-03-18T08:24:17.494Z,5.13
2023-03-18T08:26:44.187Z,5.03
2023-03-18T08:29:10.830Z,5.22
2023-03-18T08:31:37.747Z,5.22
2023-03-18T08:34:04.814Z,6.10
2023-03-18T08:36:32.236Z,5.32
2023-03-18T08:38:58.853Z,5.15
2023-03-18T08:41:26.128Z,4.90
2023-03-18T08:43:53.304Z,4.88
2023-03-18T08:46:20.327Z,4.57
2023-03-18T08:48:47.004Z,4.90
2023-03-18T08:51:14.660Z,5.15
2023-03-18T08:53:41.398Z,5.50
2023-03-18T08:56:08.622Z,5.43
2023-03-18T08:58:36.265Z,4.45
2023-03-18T09:01:05.472Z,6.18
2023-03-18T09:03:33.666Z,4.83
2023-03-18T09:06:00.823Z,5.40
2023-03-18T09:08:29.357Z,4.88
2023-03-18T09:10:56.473Z,5.43
2023-03-18T09:13:23.532Z,5.30
2023-03-18T09:15:50.205Z,5.45
2023-03-18T09:18:18.502Z,4.78
2023-03-18T09:20:45.742Z,5.38
2023-03-18T09:23:14.061Z,5.75
2023-03-18T09:25:42.758Z,5.40
2023-03-18T09:28:09.774Z,6.13
2023-03-18T09:30:38.000Z,5.30
2023-03-18T09:33:06.846Z,5.97
2023-03-18T09:35:35.383Z,7.13
2023-03-18T09:38:02.333Z,5.93
2023-03-18T09:40:32.673Z,5.68
2023-03-18T09:43:26.800Z,6.18
2023-03-18T09:46:05.494Z,5.53
2023-03-18T09:48:57.957Z,5.68
2023-03-18T09:51:41.950Z,5.88
2023-03-18T09:54:14.060Z,5.03
2023-03-18T09:56:41.642Z,5.45
2023-03-18T09:59:23.945Z,5.20
2023-03-18T10:01:55.662Z,5.32
2023-03-18T10:04:32.312Z,5.57
2023-03-18T10:07:04.388Z,4.60
2023-03-18T10:09:39.837Z,5.68
2023-03-18T10:12:17.035Z,5.60
2023-03-18T10:14:57.781Z,5.68
2023-03-18T10:17:35.344Z,5.57
2023-03-18T10:20:06.498Z,5.15
2023-03-18T10:23:04.932Z,5.03
2023-03-18T10:25:49.729Z,5.75
2023-03-18T10:28:54.485Z,5.55
2023-03-18T10:31:32.101Z,5.38
2023-03-18T10:34:02.005Z,4.90
2023-03-18T10:36:49.512Z,5.18
2023-03-18T10:39:21.022Z,5.90
2023-03-18T10:41:52.492Z,5.25
2023-03-18T10:44:26.585Z,5.97
2023-03-18T10:47:19.045Z,5.10
2023-03-18T10:50:09.211Z,5.10
2023-03-18T10:52:51.586Z,6.10
2023-03-18T10:55:22.548Z,5.28
2023-03-18T10:57:49.233Z,5.00
2023-03-18T11:00:26.603Z,5.45
2023-03-18T11:02:54.049Z,5.50
2023-03-18T11:05:27.213Z,5.28
2023-03-18T11:08:03.657Z,4.90
2023-03-18T11:10:35.735Z,5.20
2023-03-18T11:13:03.428Z,4.70
2023-03-18T11:15:37.258Z,5.07
2023-03-18T11:18:05.331Z,5.13
2023-03-18T11:20:44.282Z,5.60
2023-03-18T11:24:08.960Z,4.78
2023-03-18T11:26:56.928Z,5.03
2023-03-18T11:29:29.080Z,5.38
2023-03-18T11:32:00.058Z,5.22
2023-03-18T11:34:29.037Z,4.93
2023-03-18T11:36:59.166Z,4.60
2023-03-18T11:39:27.482Z,5.22
2023-03-18T11:41:54.298Z,5.05
2023-03-18T11:44:33.639Z,5.15
2023-03-18T11:47:13.335Z,4.30
2023-03-18T11:49:40.164Z,5.05
2023-03-18T11:52:12.995Z,4.13
2023-03-18T11:54:46.076Z,4.50
2023-03-18T11:57:33.864Z,4.50
2023-03-18T12:00:29.291Z,4.35
2023-03-18T12:03:15.677Z,4.13
2023-03-18T12:05:56.612Z,4.50
2023-03-18T12:08:45.818Z,5.07
2023-03-18T12:11:34.995Z,4.88
2023-03-18T12:14:27.328Z,4.25
2023-03-18T12:17:06.353Z,4.45
2023-03-18T12:20:04.281Z,4.45
2023-03-18T12:22:57.850Z,4.40
2023-03-18T12:25:39.314Z,3.85
2023-03-18T12:28:24.858Z,4.20
2023-03-18T12:30:58.025Z,3.60
2023-03-18T12:33:32.449Z,4.15
2023-03-18T12:36:16.182Z,4.07
2023-03-18T12:38:59.714Z,3.50
2023-03-18T12:41:37.280Z,4.25
2023-03-18T12:44:27.730Z,4.38
2023-03-18T12:47:07.877Z,4.00
2023-03-18T12:52:10.981Z,4.03
2023-03-18T12:54:43.624Z,4.47
2023-03-18T12:57:33.076Z,4.20
2023-03-18T13:00:06.626Z,3.92
2023-03-18T13:02:39.241Z,3.60
2023-03-18T13:05:18.326Z,3.83
2023-03-18T13:07:52.459Z,3.30
2023-03-18T13:10:23.824Z,3.60
2023-03-18T13:12:56.858Z,3.78
2023-03-18T13:15:46.748Z,3.50
2023-03-18T13:18:27.282Z,3.92
2023-03-18T13:20:56.575Z,3.90
2023-03-18T13:24:00.120Z,3.67
2023-03-18T13:26:54.779Z,3.58
2023-03-18T13:29:36.297Z,3.88
2023-03-18T13:32:35.977Z,4.13
2023-03-18T13:35:32.555Z,3.72
2023-03-18T13:38:38.992Z,3.40
2023-03-18T13:41:12.187Z,3.88
2023-03-18T13:43:42.848Z,3.92
2023-03-18T13:46:23.442Z,3.50
2023-03-18T13:48:56.157Z,3.63
2023-03-18T13:51:25.872Z,3.80
2023-03-18T13:53:54.734Z,3.30
2023-03-18T13:56:44.745Z,3.35
2023-03-18T14:02:00.172Z,2.88
2023-03-18T14:04:44.154Z,3.40
2023-03-18T14:07:19.526Z,4.00
2023-03-18T14:10:19.472Z,3.60
2023-03-18T14:12:47.843Z,3.50
2023-03-18T14:15:14.958Z,3.05
2023-03-18T14:17:45.620Z,3.20
2023-03-18T14:20:15.985Z,3.20
2023-03-18T14:22:44.100Z,3.33
2023-03-18T14:25:31.045Z,3.60
2023-03-18T14:28:18.585Z,2.97
2023-03-18T14:30:56.275Z,3.58
2023-03-18T14:33:22.934Z,3.15
2023-03-18T14:36:09.940Z,3.40
2023-03-18T14:38:49.902Z,3.42
2023-03-18T14:41:29.543Z,3.22
2023-03-18T14:44:28.283Z,3.60
2023-03-18T14:47:05.127Z,3.05
2023-03-18T14:49:48.458Z,3.50
2023-03-18T14:52:30.256Z,2.80
2023-03-18T14:55:01.343Z,3.05
2023-03-18T14:57:28.412Z,3.78
2023-03-18T14:59:55.262Z,3.72
2023-03-18T15:02:34.322Z,3.53
2023-03-18T15:05:02.009Z,3.53
2023-03-18T15:07:35.227Z,3.15
2023-03-18T15:10:11.606Z,3.28
2023-03-18T15:12:38.823Z,3.50
2023-03-18T15:15:07.014Z,3.40
2023-03-18T15:17:33.828Z,3.15
2023-03-18T15:20:01.154Z,3.25
2023-03-18T15:22:31.281Z,3.38
2023-03-18T15:25:01.765Z,3.08
2023-03-18T15:27:31.488Z,3.22
2023-03-18T15:30:00.735Z,2.70
2023-03-18T15:32:32.937Z,3.30
2023-03-18T15:35:24.364Z,3.78
2023-03-18T15:38:09.504Z,3.72
2023-03-18T15:40:47.349Z,3.42
2023-03-18T15:43:35.640Z,3.80
2023-03-18T15:46:27.422Z,3.58
2023-03-18T15:48:56.199Z,3.60
2023-03-18T15:51:28.438Z,3.00
2023-03-18T15:53:59.077Z,3.90
2023-03-18T15:56:30.141Z,3.97
2023-03-18T15:59:18.708Z,3.80
2023-03-18T16:01:47.309Z,3.42
2023-03-18T16:04:17.406Z,3.80
2023-03-18T16:06:44.376Z,3.75
2023-03-18T16:09:19.609Z,3.65
2023-03-18T16:11:51.703Z,4.03
2023-03-18T16:14:21.542Z,3.80
2023-03-18T16:16:48.593Z,3.75
2023-03-18T16:19:27.871Z,3.17
2023-03-18T16:21:56.631Z,3.77
2023-03-18T16:24:24.467Z,3.88
2023-03-18T16:26:53.281Z,3.30
2023-03-18T16:29:38.343Z,3.88
2023-03-18T16:32:06.296Z,3.33
2023-03-18T16:34:33.526Z,3.80
2023-03-18T16:37:00.162Z,3.05
2023-03-18T16:39:34.259Z,3.75
2023-03-18T16:42:02.310Z,4.05
2023-03-18T16:44:28.982Z,3.45
2023-03-18T16:46:57.468Z,4.00
2023-03-18T16:49:31.549Z,4.32
2023-03-18T16:51:58.615Z,3.88
2023-03-18T16:54:31.613Z,3.80
2023-03-18T16:57:01.532Z,3.97
2023-03-18T16:59:36.863Z,4.25
2023-03-18T17:02:04.184Z,4.78
2023-03-18T17:04:33.124Z,3.88
2023-03-18T17:07:01.757Z,4.15
2023-03-18T17:09:28.601Z,4.97
2023-03-18T17:12:00.430Z,4.50
2023-03-18T17:14:37.757Z,4.15
2023-03-18T17:17:28.532Z,4.65
2023-03-18T17:19:56.101Z,4.28
2023-03-18T17:22:32.667Z,4.78
2023-03-18T17:25:02.607Z,4.97
2023-03-18T17:27:36.210Z,5.78
2023-03-18T17:30:03.661Z,5.97
2023-03-18T17:32:30.417Z,5.18
2023-03-18T17:34:57.310Z,5.05
2023-03-18T17:37:24.000Z,5.30
2023-03-18T17:39:50.877Z,5.40
2023-03-18T17:42:30.303Z,5.70
2023-03-18T17:45:03.297Z,4.95
2023-03-18T17:47:29.968Z,5.55
2023-03-18T17:49:56.587Z,5.35
2023-03-18T17:52:24.212Z,4.97
2023-03-18T17:54:51.937Z,6.53
2023-03-18T17:57:18.573Z,4.88
2023-03-18T17:59:45.919Z,5.78
2023-03-18T18:02:17.888Z,5.80
2023-03-18T18:04:45.988Z,5.72
2023-03-18T18:07:21.881Z,5.70
2023-03-18T18:09:49.696Z,5.28
2023-03-18T18:12:25.323Z,6.05
2023-03-18T18:14:52.232Z,5.60
2023-03-18T18:17:19.176Z,5.10
2023-03-18T18:19:45.871Z,4.93
2023-03-18T18:22:22.696Z,4.80
2023-03-18T18:24:50.374Z,4.53
2023-03-18T18:27:17.038Z,4.75
2023-03-18T18:29:45.812Z,4.78
2023-03-18T18:32:13.467Z,5.07
2023-03-18T18:34:40.206Z,4.75
2023-03-18T18:37:08.043Z,4.75
2023-03-18T18:39:34.754Z,4.93
2023-03-18T18:42:01.505Z,5.05
2023-03-18T18:44:28.579Z,5.03
2023-03-18T18:46:55.573Z,4.80
2023-03-18T18:49:24.232Z,5.30
2023-03-18T18:51:55.958Z,5.82
2023-03-18T18:54:24.253Z,5.38
2023-03-18T18:56:52.193Z,5.00
2023-03-18T18:59:28.724Z,5.50
2023-03-18T19:01:56.238Z,5.53
2023-03-18T19:04:23.685Z,6.07
2023-03-18T19:06:52.521Z,6.60
2023-03-18T19:09:24.848Z,8.40
2023-03-18T19:11:53.299Z,7.07
2023-03-18T19:14:27.771Z,6.78
2023-03-18T19:16:58.543Z,6.47
2023-03-18T19:19:28.680Z,6.90
2023-03-18T19:21:55.406Z,5.88
2023-03-18T19:24:28.254Z,5.80
2023-03-18T19:26:57.634Z,6.40
2023-03-18T19:29:24.632Z,5.93
2023-03-18T19:31:51.604Z,5.40
2023-03-18T19:34:19.880Z,7.38
2023-03-18T19:36:49.388Z,7.50
2023-03-18T19:39:18.502Z,7.88
2023-03-18T19:41:47.687Z,6.13
2023-03-18T19:44:17.969Z,7.15
2023-03-18T19:49:18.196Z,7.53
2023-03-18T19:51:45.140Z,7.65
2023-03-18T19:54:32.381Z,7.45
2023-03-18T19:57:04.831Z,7.28
2023-03-18T19:59:39.182Z,7.30
2023-03-18T20:02:21.994Z,7.07
2023-03-18T20:04:57.835Z,7.57
2023-03-18T20:07:32.556Z,7.43
2023-03-18T20:09:59.306Z,6.40
2023-03-18T20:12:36.229Z,7.50
2023-03-18T20:15:04.635Z,7.78
2023-03-18T20:17:45.644Z,7.78
2023-03-18T20:20:16.736Z,7.05
2023-03-18T20:22:48.216Z,7.53
2023-03-18T20:25:32.897Z,7.63
2023-03-18T20:28:00.749Z,6.80
2023-03-18T20:30:30.348Z,7.35
2023-03-18T20:32:58.141Z,6.90
2023-03-18T20:35:28.345Z,6.45
2023-03-18T20:40:28.853Z,7.75
2023-03-18T20:42:55.868Z,7.45
2023-03-18T20:45:24.141Z,7.50
2023-03-18T20:47:51.190Z,7.00
2023-03-18T20:50:20.271Z,6.72
2023-03-18T20:52:48.155Z,6.78
2023-03-18T20:55:22.197Z,7.35
2023-03-18T20:57:49.917Z,7.32
2023-03-18T21:00:20.578Z,7.18
2023-03-18T21:02:52.804Z,7.22
2023-03-18T21:05:20.391Z,6.85
2023-03-18T21:07:49.970Z,6.78
2023-03-18T21:10:19.225Z,6.88
2023-03-18T21:12:46.599Z,6.90
2023-03-18T21:15:17.522Z,6.57
2023-03-18T21:17:46.008Z,5.85
2023-03-18T21:20:22.561Z,6.53
2023-03-18T21:22:50.844Z,6.60
2023-03-18T21:25:23.319Z,6.45
2023-03-18T21:27:50.915Z,7.45
2023-03-18T21:30:19.348Z,6.93
2023-03-18T21:32:46.403Z,7.15
2023-03-18T21:35:22.256Z,7.07
2023-03-18T21:37:49.212Z,6.30
2023-03-18T21:40:19.245Z,7.10
2023-03-18T21:42:46.657Z,7.18
2023-03-18T21:45:15.876Z,8.40
2023-03-18T21:47:42.806Z,8.05
2023-03-18T21:50:26.184Z,8.75
2023-03-18T21:52:54.419Z,9.52
2023-03-18T21:55:22.353Z,9.63
2023-03-18T21:57:49.647Z,9.63
2023-03-18T22:00:21.806Z,9.63
2023-03-18T22:02:49.344Z,8.23
2023-03-18T22:05:22.811Z,8.73
2023-03-18T22:07:51.474Z,7.47
2023-03-18T22:10:23.187Z,8.68
2023-03-18T22:12:50.572Z,7.75
2023-03-18T22:15:38.347Z,8.25
2023-03-18T22:18:07.364Z,8.85
2023-03-18T22:20:36.430Z,9.52
2023-03-18T22:23:27.692Z,9.35
2023-03-18T22:25:56.006Z,8.07
2023-03-18T22:28:25.603Z,8.80
2023-03-18T22:30:55.145Z,9.77
2023-03-18T22:33:28.936Z,8.63
2023-03-18T22:35:55.935Z,8.73
2023-03-18T22:38:24.093Z,9.30
2023-03-18T22:40:54.097Z,8.35
2023-03-18T22:43:35.803Z,8.73
2023-03-18T22:46:07.824Z,9.63
2023-03-18T22:48:34.963Z,8.18
2023-03-18T22:51:02.355Z,9.10
2023-03-18T22:53:32.648Z,9.45
2023-03-18T22:56:05.823Z,7.85
2023-03-18T22:58:32.597Z,9.30
2023-03-18T23:00:59.212Z,8.57
2023-03-18T23:03:29.161Z,9.15
2023-03-18T23:05:57.613Z,9.45
2023-03-18T23:08:25.010Z,9.32
2023-03-18T23:10:53.485Z,9.00
2023-03-18T23:13:38.572Z,9.57
2023-03-18T23:16:07.821Z,8.90
2023-03-18T23:18:34.957Z,11.70
2023-03-18T23:21:01.705Z,11.35
2023-03-18T23:23:30.592Z,10.98
2023-03-18T23:25:57.483Z,10.45
2023-03-18T23:28:24.106Z,10.80
2023-03-18T23:30:52.457Z,10.32
2023-03-18T23:33:19.553Z,10.02
2023-03-18T23:35:47.347Z,10.25
2023-03-18T23:38:14.143Z,10.35
2023-03-18T23:40:41.001Z,10.93
2023-03-18T23:43:09.143Z,10.63
2023-03-18T23:45:38.726Z,11.45
2023-03-18T23:48:06.197Z,12.38
2023-03-18T23:50:33.585Z,10.90
2023-03-18T23:53:01.031Z,11.32
2023-03-18T23:55:34.367Z,11.40
2023-03-18T23:58:02.234Z,10.75
